createdAt,value
2023-04-07T00:01:44.317Z,0.20
2023-04-07T00:04:11.146Z,0.20
2023-04-07T00:06:38.040Z,0.10
2023-04-07T00:09:04.783Z,0.10
2023-04-07T00:11:31.730Z,0.10
2023-04-07T00:13:58.540Z,0.10
2023-04-07T00:16:25.313Z,0.10
2023-04-07T00:18:52.619Z,0.10
2023-04-07T00:21:19.321Z,0.10
2023-04-07T00:23:46.996Z,0.10
2023-04-07T00:26:13.757Z,0.10
2023-04-07T00:28:40.641Z,0.10
2023-04-07T00:31:07.308Z,0.10
2023-04-07T00:33:33.951Z,0.00
2023-04-07T00:36:00.771Z,0.00
2023-04-07T00:38:27.481Z,0.00
2023-04-07T00:40:58.225Z,0.00
2023-04-07T00:43:25.628Z,0.00
2023-04-07T00:45:52.885Z,-0.10
2023-04-07T00:48:20.152Z,-0.10
2023-04-07T00:50:46.885Z,-0.20
2023-04-07T00:53:13.572Z,-0.20
2023-04-07T00:55:40.551Z,-0.20
2023-04-07T00:58:07.154Z,-0.10
2023-04-07T01:00:36.372Z,-0.10
2023-04-07T01:03:08.391Z,-0.10
2023-04-07T01:05:42.381Z,-0.20
2023-04-07T01:08:14.191Z,-0.10
2023-04-07T01:10:46.599Z,-0.20
2023-04-07T01:13:23.074Z,-0.20
2023-04-07T01:15:51.503Z,-0.20
2023-04-07T01:18:22.244Z,-0.20
2023-04-07T01:20:50.242Z,-0.30
2023-04-07T01:23:34.451Z,-0.20
2023-04-07T01:26:15.670Z,-0.30
2023-04-07T01:29:00.787Z,-0.30
2023-04-07T01:31:28.094Z,-0.30
2023-04-07T01:33:56.077Z,-0.30
2023-04-07T01:36:23.195Z,-0.30
2023-04-07T01:38:51.310Z,-0.30
2023-04-07T01:41:18.574Z,-0.20
2023-04-07T01:43:52.130Z,-0.20
2023-04-07T01:46:19.329Z,-0.10
2023-04-07T01:48:48.725Z,-0.20
2023-04-07T01:51:19.161Z,-0.20
2023-04-07T01:53:46.292Z,-0.20
2023-04-07T01:56:13.042Z,-0.20
2023-04-07T01:58:39.693Z,-0.20
2023-04-07T02:01:06.783Z,-0.20
2023-04-07T02:03:40.680Z,-0.10
2023-04-07T02:06:08.653Z,-0.10
2023-04-07T02:08:36.698Z,-0.10
2023-04-07T02:11:03.868Z,-0.10
2023-04-07T02:13:31.033Z,-0.10
2023-04-07T02:15:58.284Z,-0.10
2023-04-07T02:18:26.142Z,-0.10
2023-04-07T02:20:53.154Z,-0.10
2023-04-07T02:23:19.941Z,-0.10
2023-04-07T02:25:46.576Z,-0.10
2023-04-07T02:28:13.193Z,0.00
2023-04-07T02:30:39.832Z,0.00
2023-04-07T02:33:06.745Z,0.10
2023-04-07T02:35:33.377Z,0.10
2023-04-07T02:38:00.069Z,0.10
2023-04-07T02:40:26.826Z,0.00
2023-04-07T02:42:53.500Z,0.00
2023-04-07T02:45:20.132Z,0.00
2023-04-07T02:47:46.845Z,0.00
2023-04-07T02:50:13.549Z,0.00
2023-04-07T02:52:40.478Z,0.00
2023-04-07T02:55:07.334Z,0.00
2023-04-07T02:57:34.002Z,0.00
2023-04-07T03:00:00.873Z,-0.10
2023-04-07T03:02:27.607Z,-0.20
2023-04-07T03:04:54.377Z,-0.10
2023-04-07T03:07:21.025Z,-0.20
2023-04-07T03:09:47.665Z,-0.20
2023-04-07T03:12:14.307Z,-0.20
2023-04-07T03:14:41.212Z,-0.20
2023-04-07T03:17:07.922Z,-0.20
2023-04-07T03:19:34.585Z,-0.20
2023-04-07T03:22:01.406Z,-0.30
2023-04-07T03:24:28.106Z,-0.30
2023-04-07T03:26:54.832Z,-0.30
2023-04-07T03:29:21.517Z,-0.30
2023-04-07T03:31:48.225Z,-0.40
2023-04-07T03:34:15.113Z,-0.40
2023-04-07T03:36:41.812Z,-0.40
2023-04-07T03:39:09.579Z,-0.50
2023-04-07T03:41:36.265Z,-0.50
2023-04-07T03:44:02.920Z,-0.50
2023-04-07T03:46:29.657Z,-0.50
2023-04-07T03:48:56.401Z,-0.50
2023-04-07T03:51:23.055Z,-0.60
2023-04-07T03:53:49.680Z,-0.60
2023-04-07T03:56:17.127Z,-0.70
2023-04-07T03:58:44.376Z,-0.80
2023-04-07T04:01:11.378Z,-0.80
2023-04-07T04:03:38.214Z,-0.80
2023-04-07T04:06:05.125Z,-0.80
2023-04-07T04:08:31.786Z,-0.70
2023-04-07T04:10:58.503Z,-0.80
2023-04-07T04:13:25.674Z,-0.90
2023-04-07T04:15:52.547Z,-0.90
2023-04-07T04:18:19.270Z,-0.90
2023-04-07T04:20:45.979Z,-0.80
2023-04-07T04:23:12.670Z,-0.80
2023-04-07T04:25:42.344Z,-0.80
2023-04-07T04:28:08.966Z,-0.80
2023-04-07T04:30:35.798Z,-0.90
2023-04-07T04:33:03.177Z,-0.90
2023-04-07T04:35:29.943Z,-0.90
2023-04-07T04:37:56.652Z,-0.90
2023-04-07T04:40:23.281Z,-0.90
2023-04-07T04:42:50.090Z,-0.80
2023-04-07T04:45:16.870Z,-0.80
2023-04-07T04:47:44.107Z,-0.80
2023-04-07T04:50:11.117Z,-0.80
2023-04-07T04:52:39.485Z,-0.80
2023-04-07T04:55:06.653Z,-0.80
2023-04-07T04:57:36.019Z,-0.80
2023-04-07T05:00:04.498Z,-0.70
2023-04-07T05:02:31.497Z,-0.70
2023-04-07T05:04:58.393Z,-0.80
2023-04-07T05:07:25.372Z,-0.70
2023-04-07T05:09:52.089Z,-0.60
2023-04-07T05:12:18.862Z,-0.50
2023-04-07T05:14:45.581Z,-0.60
2023-04-07T05:17:12.244Z,-0.60
2023-04-07T05:19:38.938Z,-0.50
2023-04-07T05:22:05.624Z,-0.50
2023-04-07T05:24:32.274Z,-0.40
2023-04-07T05:26:58.884Z,-0.40
2023-04-07T05:29:25.560Z,-0.30
2023-04-07T05:31:52.286Z,-0.20
2023-04-07T05:34:18.965Z,-0.20
2023-04-07T05:36:45.971Z,-0.20
2023-04-07T05:39:12.630Z,-0.10
2023-04-07T05:41:39.341Z,0.10
2023-04-07T05:44:06.736Z,0.10
2023-04-07T05:46:33.444Z,0.20
2023-04-07T05:49:07.168Z,0.30
2023-04-07T05:51:47.365Z,0.40
2023-04-07T05:54:15.146Z,0.40
2023-04-07T05:56:41.736Z,0.50
2023-04-07T05:59:09.095Z,0.60
2023-04-07T06:01:35.813Z,0.70
2023-04-07T06:04:03.568Z,0.80
2023-04-07T06:06:31.718Z,0.90
2023-04-07T06:08:59.678Z,0.90
2023-04-07T06:11:27.265Z,1.00
2023-04-07T06:13:53.972Z,1.00
2023-04-07T06:16:20.829Z,1.20
2023-04-07T06:18:47.491Z,1.20
2023-04-07T06:21:14.175Z,1.30
2023-04-07T06:23:41.079Z,1.40
2023-04-07T06:26:11.526Z,1.60
2023-04-07T06:28:38.370Z,1.70
2023-04-07T06:31:05.675Z,1.80
2023-04-07T06:33:32.382Z,2.00
2023-04-07T06:35:59.056Z,2.10
2023-04-07T06:38:25.822Z,2.20
2023-04-07T06:40:52.622Z,2.30
2023-04-07T06:43:19.273Z,2.40
2023-04-07T06:45:45.950Z,2.50
2023-04-07T06:48:12.613Z,2.60
2023-04-07T06:50:39.319Z,2.70
2023-04-07T06:53:06.062Z,2.80
2023-04-07T06:55:32.808Z,2.80
2023-04-07T06:57:59.474Z,2.90
2023-04-07T07:00:27.084Z,3.10
2023-04-07T07:02:53.898Z,3.20
2023-04-07T07:05:20.704Z,3.20
2023-04-07T07:07:47.318Z,3.40
2023-04-07T07:10:14.007Z,3.40
2023-04-07T07:12:40.815Z,3.60
2023-04-07T07:15:07.611Z,3.70
2023-04-07T07:17:34.368Z,3.80
2023-04-07T07:20:01.160Z,4.00
2023-04-07T07:22:27.836Z,4.10
2023-04-07T07:24:54.466Z,4.30
2023-04-07T07:27:21.179Z,4.40
2023-04-07T07:29:47.812Z,4.50
2023-04-07T07:32:14.464Z,4.60
2023-04-07T07:34:41.391Z,4.80
2023-04-07T07:37:08.146Z,4.90
2023-04-07T07:39:34.905Z,5.10
2023-04-07T07:42:01.901Z,5.20
2023-04-07T07:44:30.776Z,5.30
2023-04-07T07:46:58.656Z,5.50
2023-04-07T07:49:25.455Z,5.60
2023-04-07T07:51:52.115Z,5.70
2023-04-07T07:54:18.818Z,5.90
2023-04-07T07:56:45.441Z,6.00
2023-04-07T07:59:12.120Z,6.20
2023-04-07T08:01:38.956Z,6.30
2023-04-07T08:04:05.832Z,6.50
2023-04-07T08:06:32.739Z,6.60
2023-04-07T08:08:59.352Z,6.70
2023-04-07T08:11:26.198Z,6.80
2023-04-07T08:13:53.990Z,6.90
2023-04-07T08:16:22.164Z,7.10
2023-04-07T08:18:49.183Z,7.20
2023-04-07T08:21:16.203Z,7.30
2023-04-07T08:23:43.481Z,7.40
2023-04-07T08:26:10.189Z,7.40
2023-04-07T08:28:37.075Z,7.70
2023-04-07T08:31:03.829Z,7.90
2023-04-07T08:33:30.846Z,8.00
2023-04-07T08:35:58.439Z,8.10
2023-04-07T08:38:25.133Z,8.00
2023-04-07T08:40:54.767Z,8.00
2023-04-07T08:43:22.706Z,8.10
2023-04-07T08:45:52.988Z,8.10
2023-04-07T08:48:22.040Z,8.40
2023-04-07T08:50:51.576Z,8.50
2023-04-07T08:53:19.464Z,8.60
2023-04-07T08:55:46.123Z,8.60
2023-04-07T08:58:13.542Z,8.70
2023-04-07T09:00:41.813Z,8.70
2023-04-07T09:05:35.859Z,8.60
2023-04-07T09:08:03.060Z,8.70
2023-04-07T09:10:30.306Z,8.70
2023-04-07T09:12:58.298Z,8.80
2023-04-07T09:15:25.536Z,8.90
2023-04-07T09:17:52.299Z,9.00
2023-04-07T09:20:19.017Z,9.00
2023-04-07T09:22:46.138Z,9.00
2023-04-07T09:25:14.026Z,9.20
2023-04-07T09:27:40.984Z,9.30
2023-04-07T09:30:11.570Z,9.30
2023-04-07T09:32:39.083Z,9.20
2023-04-07T09:35:05.912Z,9.30
2023-04-07T09:37:32.619Z,9.40
2023-04-07T09:39:59.882Z,9.40
2023-04-07T09:42:30.814Z,9.50
2023-04-07T09:44:57.780Z,9.60
2023-04-07T09:47:31.031Z,9.70
2023-04-07T09:49:59.264Z,9.80
2023-04-07T09:52:46.530Z,9.80
2023-04-07T09:55:13.789Z,9.90
2023-04-07T09:57:41.320Z,10.00
2023-04-07T10:00:08.342Z,10.00
2023-04-07T10:02:35.284Z,10.10
2023-04-07T10:05:02.169Z,10.20
2023-04-07T10:07:28.787Z,10.20
2023-04-07T10:09:55.774Z,10.20
2023-04-07T10:12:22.607Z,10.30
2023-04-07T10:14:50.354Z,10.40
2023-04-07T10:17:19.338Z,10.40
2023-04-07T10:19:46.772Z,10.40
2023-04-07T10:22:13.923Z,10.40
2023-04-07T10:25:00.131Z,10.40
2023-04-07T10:27:31.772Z,10.50
2023-04-07T10:29:59.034Z,10.60
2023-04-07T10:32:26.063Z,10.60
2023-04-07T10:34:57.572Z,10.90
2023-04-07T10:37:25.324Z,11.10
2023-04-07T10:40:12.345Z,11.10
2023-04-07T10:42:39.063Z,11.10
2023-04-07T10:45:09.645Z,11.10
2023-04-07T10:47:56.796Z,11.30
2023-04-07T10:50:24.303Z,11.40
2023-04-07T10:53:12.257Z,11.60
2023-04-07T10:55:39.800Z,11.70
2023-04-07T10:58:18.892Z,11.70
2023-04-07T11:01:12.343Z,11.60
2023-04-07T11:03:43.245Z,11.50
2023-04-07T11:06:11.324Z,11.40
2023-04-07T11:08:39.087Z,11.50
2023-04-07T11:11:09.588Z,11.60
2023-04-07T11:13:46.462Z,11.70
2023-04-07T11:16:13.964Z,11.70
2023-04-07T11:18:41.380Z,11.60
2023-04-07T11:21:08.902Z,11.70
2023-04-07T11:23:42.043Z,11.90
2023-04-07T11:26:11.680Z,11.90
2023-04-07T11:28:52.802Z,11.90
2023-04-07T11:31:25.018Z,12.00
2023-04-07T11:37:04.404Z,12.10
2023-04-07T11:42:55.059Z,12.10
2023-04-07T11:45:22.124Z,12.00
2023-04-07T11:47:50.943Z,12.10
2023-04-07T11:50:20.095Z,12.00
2023-04-07T11:52:49.532Z,12.10
2023-04-07T11:55:25.008Z,12.20
2023-04-07T11:57:52.119Z,12.20
2023-04-07T12:00:29.762Z,12.20
2023-04-07T12:02:58.633Z,12.20
2023-04-07T12:06:06.335Z,12.20
2023-04-07T12:08:51.535Z,12.10
2023-04-07T12:14:23.612Z,12.20
2023-04-07T12:17:18.457Z,12.00
2023-04-07T12:20:38.202Z,12.00
2023-04-07T12:23:09.995Z,12.30
2023-04-07T12:25:36.912Z,12.30
2023-04-07T12:28:07.540Z,12.40
2023-04-07T12:30:34.245Z,12.40
2023-04-07T12:33:06.311Z,12.50
2023-04-07T12:35:33.278Z,12.30
2023-04-07T12:38:03.034Z,12.20
2023-04-07T12:40:41.933Z,12.10
2023-04-07T12:45:49.876Z,12.00
2023-04-07T12:51:07.621Z,12.30
2023-04-07T12:53:37.239Z,12.30
2023-04-07T12:56:17.256Z,12.40
2023-04-07T13:01:50.640Z,12.40
2023-04-07T13:04:44.134Z,12.60
2023-04-07T13:10:11.031Z,12.40
2023-04-07T13:12:40.043Z,12.40
2023-04-07T13:15:07.471Z,12.50
2023-04-07T13:17:46.994Z,12.70
2023-04-07T13:20:20.173Z,12.90
2023-04-07T13:23:10.306Z,12.80
2023-04-07T13:26:05.159Z,12.70
2023-04-07T13:28:34.893Z,13.00
2023-04-07T13:31:05.904Z,13.10
2023-04-07T13:36:48.024Z,13.10
2023-04-07T13:39:42.230Z,13.10
2023-04-07T13:42:11.455Z,13.40
2023-04-07T13:44:51.694Z,13.50
2023-04-07T13:47:25.304Z,13.60
2023-04-07T13:49:53.069Z,13.60
2023-04-07T13:52:19.828Z,13.60
2023-04-07T13:54:49.538Z,13.60
2023-04-07T13:57:20.808Z,13.60
2023-04-07T13:59:49.297Z,13.40
2023-04-07T14:05:41.448Z,13.50
2023-04-07T14:08:08.218Z,13.80
2023-04-07T14:10:44.696Z,14.10
2023-04-07T14:13:14.222Z,14.40
2023-04-07T14:15:40.943Z,14.50
2023-04-07T14:18:07.977Z,14.30
2023-04-07T14:20:34.757Z,14.40
2023-04-07T14:23:06.072Z,14.10
2023-04-07T14:25:55.377Z,14.10
2023-04-07T14:28:26.167Z,14.40
2023-04-07T14:30:55.263Z,14.40
2023-04-07T14:33:28.865Z,14.70
2023-04-07T14:36:53.261Z,14.70
2023-04-07T14:38:54.336Z,14.80
2023-04-07T14:41:27.786Z,14.50
2023-04-07T14:44:01.985Z,14.30
2023-04-07T14:46:30.173Z,14.50
2023-04-07T14:48:58.464Z,14.60
2023-04-07T14:51:25.200Z,14.40
2023-04-07T14:53:56.294Z,14.60
2023-04-07T14:56:23.265Z,14.40
2023-04-07T14:58:49.992Z,14.30
2023-04-07T15:01:17.446Z,14.20
2023-04-07T15:03:44.603Z,14.00
2023-04-07T15:06:12.232Z,13.90
2023-04-07T15:08:39.317Z,14.00
2023-04-07T15:11:06.578Z,14.00
2023-04-07T15:13:33.513Z,13.80
2023-04-07T15:16:10.380Z,13.90
2023-04-07T15:18:38.315Z,13.90
2023-04-07T15:21:05.017Z,13.80
2023-04-07T15:23:31.649Z,13.90
2023-04-07T15:26:00.466Z,13.80
2023-04-07T15:32:07.531Z,13.90
2023-04-07T15:34:06.647Z,13.70
2023-04-07T15:36:33.328Z,13.70
2023-04-07T15:39:03.994Z,13.50
2023-04-07T15:41:31.104Z,13.40
2023-04-07T15:43:59.214Z,13.20
2023-04-07T15:46:32.025Z,13.10
2023-04-07T15:48:59.296Z,13.00
2023-04-07T15:51:27.660Z,13.00
2023-04-07T15:53:54.515Z,13.00
2023-04-07T15:56:24.591Z,13.00
2023-04-07T15:58:51.349Z,12.80
2023-04-07T16:01:18.079Z,12.70
2023-04-07T16:03:46.097Z,12.60
2023-04-07T16:06:13.093Z,12.70
2023-04-07T16:08:44.735Z,12.60
2023-04-07T16:11:11.375Z,12.60
2023-04-07T16:13:42.260Z,12.60
2023-04-07T16:16:09.002Z,12.50
2023-04-07T16:18:40.211Z,12.50
2023-04-07T16:22:04.199Z,12.40
2023-04-07T16:24:04.706Z,12.40
2023-04-07T16:26:31.734Z,12.30
2023-04-07T16:29:01.765Z,12.20
2023-04-07T16:31:28.504Z,12.20
2023-04-07T16:33:55.344Z,12.10
2023-04-07T16:36:22.089Z,12.20
2023-04-07T16:38:51.154Z,12.20
2023-04-07T16:41:17.885Z,12.20
2023-04-07T16:43:45.756Z,12.10
2023-04-07T16:46:15.052Z,12.10
2023-04-07T16:48:41.931Z,12.00
2023-04-07T16:51:17.214Z,11.80
2023-04-07T16:53:46.373Z,11.80
2023-04-07T16:56:28.128Z,11.60
2023-04-07T16:59:14.923Z,11.50
2023-04-07T17:02:45.905Z,11.30
2023-04-07T17:05:35.328Z,11.30
2023-04-07T17:11:10.792Z,11.00
2023-04-07T17:13:40.385Z,10.80
2023-04-07T17:16:07.304Z,10.80
2023-04-07T17:18:58.991Z,10.70
2023-04-07T17:21:28.162Z,10.70
2023-04-07T17:23:57.885Z,10.60
2023-04-07T17:26:37.257Z,10.60
2023-04-07T17:29:03.923Z,10.50
2023-04-07T17:31:42.585Z,10.50
2023-04-07T17:34:27.496Z,10.40
2023-04-07T17:37:46.086Z,10.20
2023-04-07T17:39:54.630Z,10.10
2023-04-07T17:42:23.869Z,10.00
2023-04-07T17:44:55.176Z,9.90
2023-04-07T17:47:36.374Z,9.90
2023-04-07T17:50:05.984Z,9.70
2023-04-07T17:52:32.864Z,9.70
2023-04-07T17:55:02.357Z,9.50
2023-04-07T17:57:35.021Z,9.50
2023-04-07T18:00:08.035Z,9.40
2023-04-07T18:02:36.859Z,9.30
2023-04-07T18:05:09.698Z,9.20
2023-04-07T18:07:36.417Z,9.20
2023-04-07T18:10:03.406Z,9.10
2023-04-07T18:12:31.992Z,9.10
2023-04-07T18:14:58.811Z,9.00
2023-04-07T18:17:25.578Z,9.00
2023-04-07T18:19:53.295Z,9.00
2023-04-07T18:22:20.036Z,9.00
2023-04-07T18:24:46.701Z,9.00
2023-04-07T18:27:13.470Z,9.00
2023-04-07T18:29:40.072Z,9.00
2023-04-07T18:32:06.778Z,8.90
2023-04-07T18:34:33.417Z,8.90
2023-04-07T18:37:00.074Z,8.90
2023-04-07T18:39:28.258Z,8.90
2023-04-07T18:41:55.382Z,8.90
2023-04-07T18:44:22.081Z,8.80
2023-04-07T18:46:48.784Z,8.80
2023-04-07T18:49:21.992Z,8.80
2023-04-07T18:51:48.615Z,8.80
2023-04-07T18:54:15.508Z,8.70
2023-04-07T18:56:54.043Z,8.70
2023-04-07T19:03:00.111Z,8.60
2023-04-07T19:05:55.345Z,8.50
2023-04-07T19:08:24.955Z,8.50
2023-04-07T19:13:44.535Z,8.50
2023-04-07T19:16:11.449Z,8.50
2023-04-07T19:18:49.918Z,8.50
2023-04-07T19:21:16.664Z,8.50
2023-04-07T19:23:45.820Z,8.40
2023-04-07T19:26:13.057Z,8.30
2023-04-07T19:28:41.249Z,8.30
2023-04-07T19:31:08.724Z,8.30
2023-04-07T19:33:35.565Z,8.20
2023-04-07T19:36:02.677Z,8.20
2023-04-07T19:38:29.323Z,8.20
2023-04-07T19:40:56.175Z,8.10
2023-04-07T19:43:22.824Z,8.10
2023-04-07T19:48:33.481Z,8.00
2023-04-07T19:51:00.353Z,8.00
2023-04-07T19:53:28.606Z,7.90
2023-04-07T19:55:55.492Z,7.90
2023-04-07T19:58:22.828Z,7.90
2023-04-07T20:00:52.753Z,7.90
2023-04-07T20:03:19.853Z,7.90
2023-04-07T20:05:46.717Z,7.90
2023-04-07T20:08:13.404Z,7.80
2023-04-07T20:10:40.336Z,7.80
2023-04-07T20:13:07.011Z,7.70
2023-04-07T20:15:33.698Z,7.80
2023-04-07T20:18:00.539Z,7.80
2023-04-07T20:20:27.267Z,7.80
2023-04-07T20:22:54.039Z,7.80
2023-04-07T20:25:20.720Z,7.70
2023-04-07T20:27:49.251Z,7.70
2023-04-07T20:30:16.269Z,7.70
2023-04-07T20:32:43.480Z,7.60
2023-04-07T20:35:11.904Z,7.60
2023-04-07T20:37:38.756Z,7.60
2023-04-07T20:40:06.117Z,7.60
2023-04-07T20:42:32.816Z,7.60
2023-04-07T20:45:03.730Z,7.60
2023-04-07T20:47:31.368Z,7.60
2023-04-07T20:49:58.739Z,7.60
2023-04-07T20:52:27.240Z,7.60
2023-04-07T20:54:53.990Z,7.60
2023-04-07T20:57:20.622Z,7.60
2023-04-07T20:59:47.233Z,7.60
2023-04-07T21:02:14.064Z,7.60
2023-04-07T21:04:40.829Z,7.60
2023-04-07T21:07:07.487Z,7.60
2023-04-07T21:09:34.136Z,7.50
2023-04-07T21:12:03.421Z,7.50
2023-04-07T21:14:31.660Z,7.50
2023-04-07T21:16:58.679Z,7.50
2023-04-07T21:19:25.378Z,7.50
2023-04-07T21:21:52.007Z,7.60
2023-04-07T21:24:18.676Z,7.50
2023-04-07T21:26:45.523Z,7.50
2023-04-07T21:29:12.189Z,7.50
2023-04-07T21:31:39.527Z,7.50
2023-04-07T21:34:06.382Z,7.50
2023-04-07T21:36:33.770Z,7.50
2023-04-07T21:39:00.706Z,7.50
2023-04-07T21:41:27.409Z,7.50
2023-04-07T21:43:54.055Z,7.50
2023-04-07T21:46:20.796Z,7.50
2023-04-07T21:48:49.071Z,7.50
2023-04-07T21:51:16.016Z,7.50
2023-04-07T21:53:42.715Z,7.50
2023-04-07T21:56:09.474Z,7.50
2023-04-07T21:58:37.370Z,7.50
2023-04-07T22:01:04.069Z,7.50
2023-04-07T22:03:30.887Z,7.50
2023-04-07T22:05:58.813Z,7.40
2023-04-07T22:08:25.905Z,7.40
2023-04-07T22:10:52.633Z,7.40
2023-04-07T22:13:19.243Z,7.40
2023-04-07T22:15:45.960Z,7.40
2023-04-07T22:18:13.586Z,7.40
2023-04-07T22:20:40.507Z,7.40
2023-04-07T22:23:07.206Z,7.50
2023-04-07T22:25:33.902Z,7.50
2023-04-07T22:28:00.575Z,7.50
2023-04-07T22:30:28.320Z,7.50
2023-04-07T22:32:55.001Z,7.50
2023-04-07T22:35:21.743Z,7.50
2023-04-07T22:37:48.474Z,7.40
2023-04-07T22:40:15.130Z,7.40
2023-04-07T22:42:41.870Z,7.40
2023-04-07T22:45:08.817Z,7.40
2023-04-07T22:47:36.048Z,7.30
2023-04-07T22:50:02.734Z,7.20
2023-04-07T22:52:29.455Z,7.20
2023-04-07T22:54:57.869Z,7.10
2023-04-07T22:57:25.413Z,7.00
2023-04-07T22:59:52.061Z,6.90
2023-04-07T23:02:18.798Z,6.80
2023-04-07T23:04:45.834Z,6.70
2023-04-07T23:07:12.475Z,6.60
2023-04-07T23:09:40.867Z,6.50
2023-04-07T23:12:07.517Z,6.40
2023-04-07T23:14:34.139Z,6.30
2023-04-07T23:17:01.257Z,6.30
2023-04-07T23:19:27.946Z,6.20
2023-04-07T23:21:54.569Z,6.20
2023-04-07T23:24:21.265Z,6.10
2023-04-07T23:26:47.881Z,6.10
2023-04-07T23:29:14.542Z,6.00
2023-04-07T23:31:41.259Z,6.00
2023-04-07T23:34:07.967Z,5.90
2023-04-07T23:36:34.629Z,5.80
2023-04-07T23:39:02.333Z,5.70
2023-04-07T23:41:28.979Z,5.70
2023-04-07T23:43:55.766Z,5.60
2023-04-07T23:46:23.132Z,5.60
2023-04-07T23:48:50.162Z,5.50
2023-04-07T23:51:17.052Z,5.60
2023-04-07T23:53:43.784Z,5.50
2023-04-07T23:56:10.595Z,5.50
2023-04-07T23:58:37.404Z,5.50
